Pagina principale
METAR-TAF:

METAR-TAF

Aeroporti :

Aeroporto Internazionale di Tulsa

Tulsa, Oklahoma, Stati Uniti

latitudine: 36-11-51N, longitudine: 095-53-11W, altezza: 206 m

Osservazione

Il bollettino è stato emesso 29 minuti fa, alle 18:53 UTC
Vento calmo
Temperature 29°C
Umidità 40%
Pressione 1019 hPa
Visibilità: 16.1 km
Nubi sparse ad un'altezza di 25000 ft

METAR: KTUL 191853Z 00000KT 10SM SCT250 29/14 A3009 RMK AO2 SLP182 T02890139

Ora: 14:22 (19:22 UTC)

Previsione

Il bollettino è stato emesso 2 ore e 2 minuti fa, alle 17:20 UTC
Previsione valida dal 19 alle 18 UTC al 20 alle 18 UTC
Vento 4 kt da direzioni variabili
Visibilità: 10 km
Poco nuvoloso ad un'altezza di 25000 ft

TAF: KTUL 191720Z 1918/2018 VRB04KT P6SM FEW250

Osservazioni e previsioni meteorologiche di più di 4000 aeroporti (messaggi METAR e TAF).

Le stazioni disponibili sono rappresentate dai dischi gialli e rossi sulla carta.

Puntare il mouse per vedere il nome della stazione.

Clicca sopra per visualizzare le osservazioni e previsioni meteorologiche.

Per cambiare la mappa : fare clic sui pulsanti verdi con una croce nera per ingrandire, il pulsante verde con un trattino per diminuire, o sulla freccia verde per le mappe adiacenti.


METAR-TAF: